createdAt,value
2017-12-14T00:00:44.019Z,6.58
2017-12-14T00:01:44.016Z,6.67
2017-12-14T00:03:36.915Z,6.67
2017-12-14T00:04:36.931Z,6.64
2017-12-14T00:06:30.024Z,6.69
2017-12-14T00:07:30.024Z,6.70
2017-12-14T00:09:23.060Z,6.69
2017-12-14T00:10:23.078Z,6.71
2017-12-14T00:12:16.139Z,6.71
2017-12-14T00:13:16.136Z,6.66
2017-12-14T00:15:09.178Z,6.73
2017-12-14T00:16:09.193Z,6.70
2017-12-14T00:18:02.105Z,6.64
2017-12-14T00:19:02.104Z,6.62
2017-12-14T00:20:55.022Z,6.61
2017-12-14T00:21:55.020Z,6.70
2017-12-14T00:23:47.916Z,6.81
2017-12-14T00:24:47.936Z,6.77
2017-12-14T00:26:41.011Z,6.73
2017-12-14T00:27:41.008Z,6.73
2017-12-14T00:29:34.044Z,6.69
2017-12-14T00:30:34.062Z,6.69
2017-12-14T00:32:26.978Z,6.70
2017-12-14T00:33:26.980Z,6.69
2017-12-14T00:35:19.878Z,6.62
2017-12-14T00:36:19.892Z,6.70
2017-12-14T00:38:13.304Z,6.74
2017-12-14T00:39:13.301Z,6.69
2017-12-14T00:41:06.217Z,6.66
2017-12-14T00:42:06.213Z,6.67
2017-12-14T00:43:59.333Z,6.70
2017-12-14T00:44:59.351Z,6.58
2017-12-14T00:46:52.261Z,6.59
2017-12-14T00:47:52.259Z,6.56
2017-12-14T00:49:45.158Z,6.67
2017-12-14T00:50:45.211Z,6.69
2017-12-14T00:52:38.085Z,6.64
2017-12-14T00:53:38.087Z,6.56
2017-12-14T00:55:30.980Z,6.56
2017-12-14T00:56:30.996Z,6.55
2017-12-14T00:58:23.916Z,6.51
2017-12-14T00:59:23.916Z,6.49
2017-12-14T01:01:16.968Z,6.52
2017-12-14T01:02:16.968Z,6.49
2017-12-14T01:04:10.387Z,6.54
2017-12-14T01:05:10.377Z,6.52
2017-12-14T01:07:03.495Z,6.52
2017-12-14T01:08:03.493Z,6.55
2017-12-14T01:09:56.387Z,6.48
2017-12-14T01:10:56.402Z,6.51
2017-12-14T01:12:49.503Z,6.55
2017-12-14T01:13:49.501Z,6.66
2017-12-14T01:15:42.560Z,6.58
2017-12-14T01:16:42.557Z,6.61
2017-12-14T01:18:35.454Z,6.58
2017-12-14T01:19:35.471Z,6.58
2017-12-14T01:21:28.571Z,6.64
2017-12-14T01:22:28.570Z,6.69
2017-12-14T01:24:21.465Z,6.71
2017-12-14T01:25:21.483Z,6.67
2017-12-14T01:27:14.408Z,6.69
2017-12-14T01:28:14.392Z,6.56
2017-12-14T01:30:07.516Z,6.52
2017-12-14T01:31:07.538Z,6.51
2017-12-14T01:33:00.448Z,6.46
2017-12-14T01:34:00.445Z,6.49
2017-12-14T01:35:53.556Z,6.48
2017-12-14T01:36:53.554Z,6.41
2017-12-14T01:38:46.450Z,6.31
2017-12-14T01:39:46.466Z,6.34
2017-12-14T01:41:39.382Z,6.25
2017-12-14T01:42:39.378Z,6.18
2017-12-14T01:44:32.347Z,6.17
2017-12-14T01:45:32.291Z,6.22
2017-12-14T01:47:25.205Z,6.21
2017-12-14T01:48:25.204Z,6.18
2017-12-14T01:50:18.296Z,6.21
2017-12-14T01:51:18.316Z,6.21
2017-12-14T01:53:11.411Z,6.17
2017-12-14T01:54:11.382Z,6.19
2017-12-14T01:56:04.427Z,6.17
2017-12-14T01:57:04.426Z,6.19
2017-12-14T01:58:57.466Z,6.14
2017-12-14T01:59:57.487Z,6.06
2017-12-14T02:01:50.399Z,6.17
2017-12-14T02:02:50.398Z,6.17
2017-12-14T02:04:43.292Z,6.19
2017-12-14T02:05:43.307Z,6.18
2017-12-14T02:07:36.739Z,6.19
2017-12-14T02:08:36.716Z,6.22
2017-12-14T02:10:29.807Z,6.22
2017-12-14T02:11:29.824Z,6.19
2017-12-14T02:13:22.880Z,6.17
2017-12-14T02:14:22.875Z,6.17
2017-12-14T02:16:15.797Z,6.12
2017-12-14T02:17:15.792Z,6.21
2017-12-14T02:19:08.686Z,6.28
2017-12-14T02:20:15.823Z,6.30
2017-12-14T02:22:02.114Z,6.28
2017-12-14T02:23:02.111Z,6.33
2017-12-14T02:24:55.003Z,6.37
2017-12-14T02:25:55.020Z,6.33
2017-12-14T02:27:48.164Z,6.31
2017-12-14T02:28:48.161Z,6.36
2017-12-14T02:30:41.551Z,6.31
2017-12-14T02:31:41.570Z,6.44
2017-12-14T02:33:34.487Z,6.44
2017-12-14T02:34:34.486Z,6.46
2017-12-14T02:36:27.542Z,6.36
2017-12-14T02:37:27.539Z,6.33
2017-12-14T02:39:20.437Z,6.34
2017-12-14T02:40:20.453Z,6.31
2017-12-14T02:42:13.380Z,6.36
2017-12-14T02:43:13.363Z,6.18
2017-12-14T02:45:06.483Z,6.19
2017-12-14T02:46:06.499Z,6.22
2017-12-14T02:47:59.908Z,6.19
2017-12-14T02:48:59.910Z,6.15
2017-12-14T02:50:53.010Z,6.15
2017-12-14T02:51:53.024Z,6.18
2017-12-14T02:53:45.943Z,6.15
2017-12-14T02:54:45.936Z,6.03
2017-12-14T02:56:39.038Z,6.01
2017-12-14T02:57:39.038Z,6.06
2017-12-14T02:59:32.432Z,6.03
2017-12-14T03:00:32.444Z,6.03
2017-12-14T03:02:25.851Z,5.99
2017-12-14T03:03:25.850Z,5.93
2017-12-14T03:05:18.746Z,5.89
2017-12-14T03:06:18.763Z,5.99
2017-12-14T03:08:11.875Z,5.90
2017-12-14T03:09:11.872Z,6.03
2017-12-14T03:11:04.917Z,6.06
2017-12-14T03:12:04.940Z,5.99
2017-12-14T03:13:57.849Z,5.97
2017-12-14T03:14:57.853Z,5.93
2017-12-14T03:16:50.947Z,5.96
2017-12-14T03:17:50.943Z,5.96
2017-12-14T03:19:43.980Z,5.94
2017-12-14T03:20:43.997Z,6.01
2017-12-14T03:22:36.913Z,6.15
2017-12-14T03:23:36.908Z,6.03
2017-12-14T03:25:30.297Z,6.09
2017-12-14T03:26:30.315Z,6.01
2017-12-14T03:28:23.378Z,6.12
2017-12-14T03:29:23.372Z,6.06
2017-12-14T03:31:17.265Z,6.00
2017-12-14T03:32:17.277Z,6.03
2017-12-14T03:34:10.193Z,6.08
2017-12-14T03:35:10.190Z,6.03
2017-12-14T03:37:03.261Z,6.14
2017-12-14T03:38:03.259Z,6.18
2017-12-14T03:39:56.295Z,6.04
2017-12-14T03:40:56.312Z,6.15
2017-12-14T03:42:49.370Z,6.06
2017-12-14T03:43:49.368Z,6.09
2017-12-14T03:45:42.265Z,6.15
2017-12-14T03:46:42.280Z,6.08
2017-12-14T03:48:35.196Z,6.14
2017-12-14T03:49:35.194Z,6.09
2017-12-14T03:51:28.319Z,6.09
2017-12-14T03:52:28.345Z,6.04
2017-12-14T03:54:21.251Z,6.08
2017-12-14T03:55:21.247Z,6.03
2017-12-14T03:57:14.161Z,6.03
2017-12-14T03:58:14.158Z,5.99
2017-12-14T04:00:07.058Z,6.01
2017-12-14T04:01:07.071Z,6.01
2017-12-14T04:02:59.985Z,6.00
2017-12-14T04:03:59.984Z,6.03
2017-12-14T04:05:52.876Z,6.00
2017-12-14T04:06:52.895Z,6.14
2017-12-14T04:08:45.957Z,6.06
2017-12-14T04:09:45.955Z,6.01
2017-12-14T04:11:38.851Z,6.00
2017-12-14T04:12:38.868Z,5.99
2017-12-14T04:14:32.279Z,6.04
2017-12-14T04:15:32.277Z,6.00
2017-12-14T04:17:25.192Z,6.04
2017-12-14T04:18:25.187Z,6.01
2017-12-14T04:20:18.273Z,5.99
2017-12-14T04:21:18.287Z,5.94
2017-12-14T04:23:11.342Z,6.00
2017-12-14T04:24:11.340Z,6.08
2017-12-14T04:26:04.386Z,6.03
2017-12-14T04:27:04.403Z,6.01
2017-12-14T04:28:57.317Z,6.12
2017-12-14T04:29:57.312Z,6.09
2017-12-14T04:31:50.209Z,6.04
2017-12-14T04:32:50.225Z,6.08
2017-12-14T04:34:43.149Z,6.15
2017-12-14T04:35:43.141Z,6.15
2017-12-14T04:37:36.056Z,6.08
2017-12-14T04:38:36.051Z,5.99
2017-12-14T04:40:29.156Z,5.99
2017-12-14T04:41:29.169Z,6.04
2017-12-14T04:43:22.230Z,5.99
2017-12-14T04:44:22.228Z,6.01
2017-12-14T04:46:15.124Z,6.01
2017-12-14T04:47:15.140Z,5.97
2017-12-14T04:49:08.056Z,6.04
2017-12-14T04:50:08.108Z,5.99
2017-12-14T04:52:01.202Z,6.08
2017-12-14T04:53:01.194Z,6.00
2017-12-14T04:54:54.231Z,6.08
2017-12-14T04:55:54.246Z,6.06
2017-12-14T04:57:47.170Z,6.08
2017-12-14T04:58:47.156Z,6.08
2017-12-14T05:00:40.245Z,6.03
2017-12-14T05:01:40.259Z,5.97
2017-12-14T05:03:33.179Z,5.91
2017-12-14T05:04:33.172Z,5.90
2017-12-14T05:06:26.561Z,5.89
2017-12-14T05:07:26.584Z,5.85
2017-12-14T05:09:19.635Z,5.81
2017-12-14T05:10:19.632Z,5.79
2017-12-14T05:12:12.549Z,5.72
2017-12-14T05:13:12.546Z,5.60
2017-12-14T05:15:05.626Z,5.65
2017-12-14T05:16:05.644Z,5.61
2017-12-14T05:17:58.732Z,5.42
2017-12-14T05:18:58.704Z,5.35
2017-12-14T05:20:51.744Z,5.22
2017-12-14T05:21:51.757Z,5.10
2017-12-14T05:23:44.822Z,5.04
2017-12-14T05:24:44.816Z,4.97
2017-12-14T05:26:37.719Z,4.94
2017-12-14T05:27:37.732Z,4.92
2017-12-14T05:29:30.822Z,4.84
2017-12-14T05:30:30.900Z,4.69
2017-12-14T05:32:23.880Z,4.55
2017-12-14T05:33:23.877Z,4.54
2017-12-14T05:35:16.778Z,4.41
2017-12-14T05:36:16.789Z,4.33
2017-12-14T05:38:09.897Z,4.09
2017-12-14T05:39:09.898Z,4.11
2017-12-14T05:41:02.935Z,3.96
2017-12-14T05:42:02.952Z,3.93
2017-12-14T05:43:56.016Z,3.93
2017-12-14T05:44:56.010Z,3.91
2017-12-14T05:46:49.049Z,3.84
2017-12-14T05:47:49.063Z,3.88
2017-12-14T05:49:42.127Z,3.76
2017-12-14T05:50:42.121Z,3.75
2017-12-14T05:52:35.284Z,3.83
2017-12-14T05:53:35.282Z,3.78
2017-12-14T05:55:28.321Z,3.76
2017-12-14T05:56:28.337Z,3.76
2017-12-14T05:58:21.394Z,3.83
2017-12-14T05:59:21.390Z,3.70
2017-12-14T06:01:14.432Z,3.72
2017-12-14T06:02:14.450Z,3.78
2017-12-14T06:04:07.371Z,3.70
2017-12-14T06:05:07.358Z,3.58
2017-12-14T06:07:00.445Z,3.51
2017-12-14T06:08:00.454Z,3.60
2017-12-14T06:09:53.381Z,3.50
2017-12-14T06:10:53.384Z,3.48
2017-12-14T06:12:46.811Z,3.39
2017-12-14T06:13:46.802Z,3.48
2017-12-14T06:15:39.818Z,3.39
2017-12-14T06:16:39.834Z,3.33
2017-12-14T06:18:32.744Z,3.39
2017-12-14T06:19:32.779Z,3.40
2017-12-14T06:21:25.634Z,3.28
2017-12-14T06:22:25.649Z,3.26
2017-12-14T06:24:18.567Z,3.39
2017-12-14T06:25:18.560Z,3.45
2017-12-14T06:27:11.631Z,3.29
2017-12-14T06:28:11.644Z,3.42
2017-12-14T06:30:04.556Z,3.39
2017-12-14T06:31:04.552Z,3.40
2017-12-14T06:32:57.679Z,3.40
2017-12-14T06:33:57.658Z,3.43
2017-12-14T06:35:50.705Z,3.50
2017-12-14T06:36:50.719Z,3.42
2017-12-14T06:38:43.778Z,3.48
2017-12-14T06:39:43.776Z,3.40
2017-12-14T06:41:36.814Z,3.40
2017-12-14T06:42:36.828Z,3.42
2017-12-14T06:44:29.912Z,3.40
2017-12-14T06:45:29.880Z,3.40
2017-12-14T06:47:22.773Z,3.39
2017-12-14T06:48:22.793Z,3.40
2017-12-14T06:50:15.905Z,3.32
2017-12-14T06:51:15.899Z,3.48
2017-12-14T06:53:08.952Z,3.48
2017-12-14T06:54:08.949Z,3.55
2017-12-14T06:56:01.840Z,3.55
2017-12-14T06:57:01.855Z,3.57
2017-12-14T06:58:54.765Z,3.60
2017-12-14T06:59:54.761Z,3.62
2017-12-14T07:01:47.653Z,3.66
2017-12-14T07:02:47.669Z,3.60
2017-12-14T07:04:40.774Z,3.60
2017-12-14T07:05:40.772Z,3.60
2017-12-14T07:07:33.808Z,3.66
2017-12-14T07:08:33.821Z,3.66
2017-12-14T07:10:27.234Z,3.50
2017-12-14T07:11:27.224Z,3.51
2017-12-14T07:13:20.142Z,3.52
2017-12-14T07:14:20.135Z,3.60
2017-12-14T07:16:13.183Z,3.45
2017-12-14T07:17:13.198Z,3.40
2017-12-14T07:19:06.262Z,3.42
2017-12-14T07:20:06.258Z,3.32
2017-12-14T07:21:59.307Z,3.31
2017-12-14T07:22:59.322Z,3.29
2017-12-14T07:24:52.382Z,3.36
2017-12-14T07:25:52.375Z,3.29
2017-12-14T07:27:45.426Z,3.32
2017-12-14T07:28:45.440Z,3.31
2017-12-14T07:30:39.522Z,3.24
2017-12-14T07:31:39.519Z,3.28
2017-12-14T07:33:32.582Z,3.26
2017-12-14T07:34:32.571Z,3.28
2017-12-14T07:36:25.968Z,3.29
2017-12-14T07:37:25.981Z,3.26
2017-12-14T07:39:18.897Z,3.28
2017-12-14T07:40:18.897Z,3.29
2017-12-14T07:42:11.929Z,3.29
2017-12-14T07:43:11.941Z,3.10
2017-12-14T07:45:04.992Z,3.10
2017-12-14T07:46:04.990Z,3.24
2017-12-14T07:47:58.047Z,3.14
2017-12-14T07:48:58.056Z,3.13
2017-12-14T07:50:51.105Z,3.13
2017-12-14T07:51:51.105Z,3.14
2017-12-14T07:53:44.037Z,3.24
2017-12-14T07:54:44.010Z,3.26
2017-12-14T07:56:36.909Z,3.21
2017-12-14T07:57:36.930Z,3.31
2017-12-14T07:59:29.971Z,3.24
2017-12-14T08:00:29.968Z,3.33
2017-12-14T08:02:23.017Z,3.43
2017-12-14T08:03:23.028Z,3.39
2017-12-14T08:05:15.941Z,3.51
2017-12-14T08:06:15.937Z,3.42
2017-12-14T08:08:08.830Z,3.51
2017-12-14T08:09:08.848Z,3.48
2017-12-14T08:11:01.913Z,3.51
2017-12-14T08:12:01.902Z,3.55
2017-12-14T08:13:54.965Z,3.60
2017-12-14T08:14:54.957Z,3.72
2017-12-14T08:16:47.999Z,3.79
2017-12-14T08:17:48.014Z,3.73
2017-12-14T08:19:41.161Z,3.90
2017-12-14T08:20:41.157Z,3.90
2017-12-14T08:22:35.223Z,3.88
2017-12-14T08:23:35.240Z,3.86
2017-12-14T08:25:28.303Z,3.96
2017-12-14T08:26:28.300Z,3.97
2017-12-14T08:28:21.342Z,3.97
2017-12-14T08:29:21.358Z,4.06
2017-12-14T08:31:14.423Z,4.23
2017-12-14T08:32:14.420Z,4.16
2017-12-14T08:34:07.359Z,4.30
2017-12-14T08:35:07.355Z,4.27
2017-12-14T08:37:00.254Z,4.30
2017-12-14T08:38:00.264Z,4.40
2017-12-14T08:39:53.380Z,4.58
2017-12-14T08:40:53.374Z,4.55
2017-12-14T08:42:46.422Z,4.58
2017-12-14T08:43:46.434Z,4.65
2017-12-14T08:45:39.500Z,4.72
2017-12-14T08:46:39.497Z,4.65
2017-12-14T08:48:33.560Z,4.72
2017-12-14T08:49:33.574Z,4.66
2017-12-14T08:51:26.638Z,4.77
2017-12-14T08:52:26.630Z,4.82
2017-12-14T08:54:19.685Z,4.82
2017-12-14T08:55:19.682Z,4.84
2017-12-14T08:57:12.730Z,4.78
2017-12-14T08:58:12.743Z,4.80
2017-12-14T09:00:05.806Z,4.84
2017-12-14T09:01:05.802Z,4.94
2017-12-14T09:02:58.865Z,4.92
2017-12-14T09:03:58.931Z,4.97
2017-12-14T09:05:52.015Z,5.00
2017-12-14T09:06:52.006Z,5.03
2017-12-14T09:08:45.048Z,5.09
2017-12-14T09:09:45.067Z,5.06
2017-12-14T09:11:38.139Z,5.02
2017-12-14T09:12:38.137Z,5.18
2017-12-14T09:14:31.069Z,5.18
2017-12-14T09:15:31.061Z,5.22
2017-12-14T09:17:24.136Z,5.18
2017-12-14T09:18:24.150Z,5.13
2017-12-14T09:20:17.071Z,5.35
2017-12-14T09:21:17.065Z,5.30
2017-12-14T09:23:10.132Z,5.38
2017-12-14T09:24:10.143Z,5.35
2017-12-14T09:26:03.112Z,5.45
2017-12-14T09:27:03.111Z,5.46
2017-12-14T09:28:56.538Z,5.58
2017-12-14T09:29:56.551Z,5.56
2017-12-14T09:31:50.025Z,5.63
2017-12-14T09:32:50.025Z,5.60
2017-12-14T09:34:43.488Z,5.64
2017-12-14T09:35:43.487Z,5.64
2017-12-14T09:37:36.934Z,5.71
2017-12-14T09:38:36.951Z,5.57
2017-12-14T09:40:29.916Z,5.76
2017-12-14T09:41:29.902Z,5.75
2017-12-14T09:43:23.352Z,5.72
2017-12-14T09:44:23.371Z,5.79
2017-12-14T09:46:16.844Z,5.78
2017-12-14T09:47:16.837Z,5.78
2017-12-14T09:49:10.282Z,5.79
2017-12-14T09:50:10.300Z,5.75
2017-12-14T09:52:03.770Z,5.76
2017-12-14T09:53:03.764Z,5.79
2017-12-14T09:54:57.240Z,5.72
2017-12-14T09:55:57.232Z,5.72
2017-12-14T09:57:50.695Z,5.74
2017-12-14T09:58:50.705Z,5.67
2017-12-14T10:00:43.658Z,5.75
2017-12-14T10:01:43.652Z,5.82
2017-12-14T10:03:38.136Z,5.75
2017-12-14T10:04:38.151Z,5.74
2017-12-14T10:06:31.106Z,5.78
2017-12-14T10:07:31.101Z,5.72
2017-12-14T10:09:24.035Z,5.82
2017-12-14T10:10:24.049Z,5.65
2017-12-14T10:12:17.524Z,5.75
2017-12-14T10:13:17.521Z,5.64
2017-12-14T10:15:10.986Z,5.72
2017-12-14T10:16:10.985Z,5.74
2017-12-14T10:18:04.440Z,5.83
2017-12-14T10:19:04.454Z,5.82
2017-12-14T10:20:57.915Z,5.76
2017-12-14T10:21:57.913Z,5.78
2017-12-14T10:23:50.854Z,5.78
2017-12-14T10:24:50.873Z,5.75
2017-12-14T10:26:44.337Z,5.75
2017-12-14T10:27:44.337Z,5.67
2017-12-14T10:29:37.783Z,5.58
2017-12-14T10:30:37.799Z,5.71
2017-12-14T10:32:31.277Z,5.78
2017-12-14T10:33:31.275Z,5.68
2017-12-14T10:35:24.742Z,5.64
2017-12-14T10:36:24.735Z,5.63
2017-12-14T10:38:18.191Z,5.60
2017-12-14T10:39:18.203Z,5.58
2017-12-14T10:41:11.667Z,5.57
2017-12-14T10:42:11.670Z,5.56
2017-12-14T10:44:05.115Z,5.49
2017-12-14T10:45:05.136Z,5.48
2017-12-14T10:46:58.609Z,5.33
2017-12-14T10:47:58.596Z,5.38
2017-12-14T10:49:52.046Z,5.42
2017-12-14T10:50:52.063Z,5.36
2017-12-14T10:52:45.539Z,5.22
2017-12-14T10:53:45.535Z,5.12
2017-12-14T10:55:39.000Z,5.20
2017-12-14T10:56:38.998Z,5.21
2017-12-14T10:58:32.449Z,5.12
2017-12-14T10:59:32.518Z,5.21
2017-12-14T11:01:25.957Z,5.13
2017-12-14T11:02:25.946Z,5.06
2017-12-14T11:04:19.380Z,5.10
2017-12-14T11:05:19.397Z,5.12
2017-12-14T11:07:12.891Z,5.09
2017-12-14T11:08:12.906Z,5.09
2017-12-14T11:10:07.341Z,5.15
2017-12-14T11:11:07.355Z,5.13
2017-12-14T11:13:11.886Z,5.13
2017-12-14T11:14:11.875Z,5.10
2017-12-14T11:16:05.349Z,5.07
2017-12-14T11:17:05.437Z,5.10
2017-12-14T11:18:58.307Z,5.04
2017-12-14T11:19:58.300Z,4.99
2017-12-14T11:21:51.769Z,4.92
2017-12-14T11:22:51.766Z,4.94
2017-12-14T11:24:45.221Z,4.96
2017-12-14T11:25:45.231Z,4.82
2017-12-14T11:27:38.704Z,4.78
2017-12-14T11:28:38.696Z,4.85
2017-12-14T11:30:32.165Z,4.85
2017-12-14T11:31:32.160Z,4.89
2017-12-14T11:33:25.614Z,4.89
2017-12-14T11:34:25.632Z,4.89
2017-12-14T11:36:19.103Z,4.80
2017-12-14T11:37:19.096Z,4.78
2017-12-14T11:39:12.546Z,4.77
2017-12-14T11:40:12.562Z,4.84
2017-12-14T11:42:06.031Z,4.66
2017-12-14T11:43:06.027Z,4.67
2017-12-14T11:44:59.476Z,4.77
2017-12-14T11:45:59.494Z,4.75
2017-12-14T11:47:52.965Z,4.66
2017-12-14T11:48:52.960Z,4.55
2017-12-14T11:50:46.449Z,4.58
2017-12-14T11:51:46.429Z,4.45
2017-12-14T11:53:39.945Z,4.55
2017-12-14T11:54:39.891Z,4.59
2017-12-14T11:56:33.383Z,4.52
2017-12-14T11:57:33.363Z,4.42
2017-12-14T11:59:26.810Z,4.41
2017-12-14T12:00:26.824Z,4.42
2017-12-14T12:02:20.301Z,4.33
2017-12-14T12:03:20.292Z,4.30
2017-12-14T12:05:13.744Z,4.30
2017-12-14T12:06:13.757Z,4.23
2017-12-14T12:08:07.227Z,4.15
2017-12-14T12:09:07.223Z,4.24
2017-12-14T12:11:00.175Z,4.20
2017-12-14T12:12:00.172Z,4.22
2017-12-14T12:13:53.630Z,4.09
2017-12-14T12:14:53.647Z,4.11
2017-12-14T12:16:48.132Z,4.09
2017-12-14T12:17:48.133Z,4.05
2017-12-14T12:19:41.584Z,4.00
2017-12-14T12:20:41.601Z,3.79
2017-12-14T12:22:35.072Z,3.70
2017-12-14T12:23:35.113Z,3.62
2017-12-14T12:25:28.514Z,3.55
2017-12-14T12:26:28.531Z,3.54
2017-12-14T12:28:23.095Z,3.55
2017-12-14T12:29:23.023Z,3.48
2017-12-14T12:31:16.497Z,3.65
2017-12-14T12:32:16.490Z,3.69
2017-12-14T12:34:09.937Z,3.58
2017-12-14T12:35:09.948Z,3.75
2017-12-14T12:37:03.425Z,3.69
2017-12-14T12:38:03.437Z,3.68
2017-12-14T12:39:56.906Z,3.70
2017-12-14T12:40:56.899Z,3.65
2017-12-14T12:42:50.355Z,3.69
2017-12-14T12:43:50.353Z,3.66
2017-12-14T12:45:43.805Z,3.80
2017-12-14T12:46:43.960Z,3.80
2017-12-14T12:48:38.316Z,3.78
2017-12-14T12:49:38.312Z,3.69
2017-12-14T12:51:41.773Z,3.54
2017-12-14T12:52:41.768Z,3.57
2017-12-14T12:54:35.158Z,3.54
2017-12-14T12:55:35.173Z,3.48
2017-12-14T12:57:28.258Z,3.65
2017-12-14T12:58:28.252Z,3.62
2017-12-14T13:00:21.290Z,3.60
2017-12-14T13:01:21.304Z,3.66
2017-12-14T13:03:14.214Z,3.70
2017-12-14T13:04:14.210Z,3.72
2017-12-14T13:06:07.315Z,3.79
2017-12-14T13:07:07.312Z,3.83
2017-12-14T13:09:00.365Z,3.98
2017-12-14T13:10:00.379Z,3.98
2017-12-14T13:11:53.930Z,4.11
2017-12-14T13:12:54.078Z,4.12
2017-12-14T13:14:48.337Z,4.06
2017-12-14T13:15:47.380Z,4.15
2017-12-14T13:17:40.472Z,4.20
2017-12-14T13:18:40.470Z,4.22
2017-12-14T13:20:33.509Z,4.15
2017-12-14T13:21:33.527Z,4.23
2017-12-14T13:23:26.777Z,4.22
2017-12-14T13:24:26.585Z,4.14
2017-12-14T13:26:19.660Z,4.16
2017-12-14T13:27:19.642Z,4.20
2017-12-14T13:29:12.680Z,4.16
2017-12-14T13:30:12.692Z,4.15
2017-12-14T13:32:05.752Z,4.27
2017-12-14T13:33:05.746Z,4.33
2017-12-14T13:34:58.793Z,4.32
2017-12-14T13:35:58.805Z,4.32
2017-12-14T13:37:51.868Z,4.40
2017-12-14T13:38:51.860Z,4.37
2017-12-14T13:40:44.763Z,4.47
2017-12-14T13:41:44.785Z,4.42
2017-12-14T13:43:37.868Z,4.58
2017-12-14T13:44:37.867Z,4.54
2017-12-14T13:46:30.784Z,4.67
2017-12-14T13:47:30.775Z,4.63
2017-12-14T13:49:23.751Z,4.67
2017-12-14T13:50:23.769Z,4.78
2017-12-14T13:52:17.227Z,4.66
2017-12-14T13:53:17.226Z,4.65
2017-12-14T13:55:10.165Z,4.75
2017-12-14T13:56:10.226Z,4.75
2017-12-14T13:58:03.649Z,4.82
2017-12-14T13:59:03.649Z,4.91
2017-12-14T14:00:57.118Z,5.03
2017-12-14T14:01:57.108Z,5.00
2017-12-14T14:03:50.066Z,4.97
2017-12-14T14:04:50.065Z,5.02
2017-12-14T14:06:43.535Z,5.06
2017-12-14T14:07:43.529Z,5.07
2017-12-14T14:09:36.978Z,5.09
2017-12-14T14:10:36.995Z,5.06
2017-12-14T14:12:32.928Z,5.12
2017-12-14T14:13:32.923Z,5.09
2017-12-14T14:15:25.858Z,5.03
2017-12-14T14:16:25.874Z,5.12
2017-12-14T14:18:19.342Z,5.15
2017-12-14T14:19:19.341Z,5.22
2017-12-14T14:21:12.278Z,5.13
2017-12-14T14:22:12.293Z,5.28
2017-12-14T14:24:06.787Z,5.21
2017-12-14T14:25:06.784Z,5.22
2017-12-14T14:27:00.255Z,5.24
2017-12-14T14:28:00.250Z,5.30
2017-12-14T14:29:53.189Z,5.35
2017-12-14T14:30:53.207Z,5.40
2017-12-14T14:32:46.678Z,5.39
2017-12-14T14:33:46.675Z,5.42
2017-12-14T14:35:40.703Z,5.38
2017-12-14T14:36:39.626Z,5.46
2017-12-14T14:38:33.096Z,5.48
2017-12-14T14:39:33.092Z,5.46
2017-12-14T14:41:26.540Z,5.42
2017-12-14T14:42:26.718Z,5.48
2017-12-14T14:44:19.517Z,5.48
2017-12-14T14:45:19.512Z,5.49
2017-12-14T14:47:12.985Z,5.45
2017-12-14T14:48:12.984Z,5.30
2017-12-14T14:50:05.931Z,5.18
2017-12-14T14:51:05.931Z,5.00
2017-12-14T14:52:58.893Z,4.85
2017-12-14T14:53:58.886Z,4.84
2017-12-14T14:55:51.824Z,4.63
2017-12-14T14:56:51.837Z,4.51
2017-12-14T14:58:46.336Z,4.44
2017-12-14T14:59:46.336Z,4.45
2017-12-14T15:01:39.785Z,4.47
2017-12-14T15:02:39.800Z,4.54
2017-12-14T15:04:34.350Z,4.54
2017-12-14T15:05:34.291Z,4.45
2017-12-14T15:07:28.782Z,4.50
2017-12-14T15:08:28.867Z,4.44
2017-12-14T15:10:21.742Z,4.54
2017-12-14T15:11:21.794Z,4.55
2017-12-14T15:13:17.702Z,4.69
2017-12-14T15:14:17.699Z,4.73
2017-12-14T15:16:11.118Z,4.77
2017-12-14T15:17:11.137Z,4.73
2017-12-14T15:19:05.080Z,4.72
2017-12-14T15:20:04.642Z,4.65
2017-12-14T15:21:57.677Z,4.77
2017-12-14T15:22:57.593Z,4.77
2017-12-14T15:24:51.030Z,4.82
2017-12-14T15:25:51.011Z,4.78
2017-12-14T15:27:45.606Z,4.94
2017-12-14T15:28:45.544Z,4.97
2017-12-14T15:30:39.972Z,5.06
2017-12-14T15:31:39.986Z,5.04
2017-12-14T15:33:33.456Z,5.13
2017-12-14T15:34:33.453Z,5.17
2017-12-14T15:36:26.931Z,5.22
2017-12-14T15:37:26.928Z,5.25
2017-12-14T15:39:20.388Z,5.27
2017-12-14T15:40:20.388Z,5.28
2017-12-14T15:42:14.879Z,5.27
2017-12-14T15:43:14.877Z,5.27
2017-12-14T15:45:08.436Z,5.27
2017-12-14T15:46:08.342Z,5.36
2017-12-14T15:48:01.814Z,5.40
2017-12-14T15:49:01.807Z,5.38
2017-12-14T15:50:55.262Z,5.43
2017-12-14T15:51:55.274Z,5.46
2017-12-14T15:53:48.233Z,5.46
2017-12-14T15:54:48.231Z,5.42
2017-12-14T15:56:41.683Z,5.46
2017-12-14T15:57:41.694Z,5.51
2017-12-14T15:59:35.161Z,5.46
2017-12-14T16:00:35.162Z,5.46
2017-12-14T16:02:28.634Z,5.39
2017-12-14T16:03:28.636Z,5.39
2017-12-14T16:05:21.563Z,5.40
2017-12-14T16:06:21.578Z,5.42
2017-12-14T16:08:14.535Z,5.43
2017-12-14T16:09:14.533Z,5.30
2017-12-14T16:11:09.016Z,5.28
2017-12-14T16:12:09.022Z,5.36
2017-12-14T16:14:02.494Z,5.22
2017-12-14T16:15:02.492Z,5.18
2017-12-14T16:16:55.943Z,5.12
2017-12-14T16:17:55.958Z,5.07
2017-12-14T16:19:49.429Z,5.18
2017-12-14T16:20:49.434Z,5.04
2017-12-14T16:22:42.897Z,5.09
2017-12-14T16:23:42.889Z,5.06
2017-12-14T16:25:36.341Z,5.09
2017-12-14T16:26:36.357Z,5.07
2017-12-14T16:28:30.849Z,5.02
2017-12-14T16:29:30.845Z,5.12
2017-12-14T16:31:25.418Z,5.15
2017-12-14T16:32:25.337Z,5.09
2017-12-14T16:34:18.816Z,5.18
2017-12-14T16:35:18.804Z,5.15
2017-12-14T16:37:12.254Z,5.10
2017-12-14T16:38:12.269Z,5.10
2017-12-14T16:40:06.801Z,5.13
2017-12-14T16:41:06.761Z,5.09
2017-12-14T16:43:00.228Z,5.09
2017-12-14T16:44:00.224Z,5.12
2017-12-14T16:45:54.703Z,5.10
2017-12-14T16:46:54.720Z,5.13
2017-12-14T16:48:48.187Z,5.17
2017-12-14T16:49:48.187Z,5.22
2017-12-14T16:51:41.655Z,5.15
2017-12-14T16:52:41.651Z,5.15
2017-12-14T16:54:39.624Z,5.21
2017-12-14T16:55:39.621Z,5.10
2017-12-14T16:57:34.115Z,5.06
2017-12-14T16:58:34.146Z,5.12
2017-12-14T17:00:28.604Z,5.10
2017-12-14T17:01:28.631Z,5.17
2017-12-14T17:03:24.736Z,5.18
2017-12-14T17:04:25.747Z,5.27
2017-12-14T17:06:18.181Z,5.20
2017-12-14T17:07:18.288Z,5.20
2017-12-14T17:09:11.694Z,5.15
2017-12-14T17:10:11.665Z,5.21
2017-12-14T17:12:05.175Z,5.22
2017-12-14T17:13:05.145Z,5.24
2017-12-14T17:14:58.602Z,5.27
2017-12-14T17:15:58.617Z,5.27
2017-12-14T17:17:52.067Z,5.30
2017-12-14T17:18:52.067Z,5.33
2017-12-14T17:20:45.510Z,5.39
2017-12-14T17:21:45.527Z,5.30
2017-12-14T17:23:39.004Z,5.39
2017-12-14T17:24:38.994Z,5.46
2017-12-14T17:26:33.464Z,5.38
2017-12-14T17:27:33.480Z,5.43
2017-12-14T17:29:26.948Z,5.27
2017-12-14T17:30:26.954Z,5.27
2017-12-14T17:32:20.396Z,5.35
2017-12-14T17:33:20.413Z,5.31
2017-12-14T17:35:13.891Z,5.21
2017-12-14T17:36:13.886Z,5.25
2017-12-14T17:38:08.383Z,5.24
2017-12-14T17:39:08.464Z,5.21
2017-12-14T17:41:01.858Z,5.20
2017-12-14T17:42:01.911Z,5.15
2017-12-14T17:43:56.326Z,5.18
2017-12-14T17:44:56.324Z,5.15
2017-12-14T17:46:51.007Z,5.15
2017-12-14T17:47:51.023Z,5.21
2017-12-14T17:49:45.516Z,5.20
2017-12-14T17:50:45.513Z,5.17
2017-12-14T17:52:38.962Z,5.27
2017-12-14T17:53:38.981Z,5.27
2017-12-14T17:55:32.446Z,5.25
2017-12-14T17:56:32.443Z,5.22
2017-12-14T17:58:25.909Z,5.25
2017-12-14T17:59:25.905Z,5.25
2017-12-14T18:01:19.375Z,5.31
2017-12-14T18:02:19.381Z,5.28
2017-12-14T18:04:12.849Z,5.30
2017-12-14T18:05:12.846Z,5.18
2017-12-14T18:07:06.290Z,5.18
2017-12-14T18:08:06.310Z,5.12
2017-12-14T18:10:00.801Z,5.12
2017-12-14T18:11:00.837Z,5.06
2017-12-14T18:12:54.247Z,5.07
2017-12-14T18:13:54.265Z,5.03
2017-12-14T18:15:47.746Z,5.09
2017-12-14T18:16:47.729Z,5.04
2017-12-14T18:18:41.200Z,5.06
2017-12-14T18:19:41.194Z,5.04
2017-12-14T18:21:34.139Z,5.04
2017-12-14T18:22:34.152Z,4.99
2017-12-14T18:24:30.593Z,4.89
2017-12-14T18:25:30.591Z,4.94
2017-12-14T18:27:23.529Z,4.85
2017-12-14T18:28:23.540Z,4.89
2017-12-14T18:30:16.494Z,4.78
2017-12-14T18:31:16.491Z,4.75
2017-12-14T18:33:09.432Z,4.72
2017-12-14T18:34:09.600Z,4.80
2017-12-14T18:36:02.405Z,4.70
2017-12-14T18:37:02.402Z,4.70
2017-12-14T18:38:55.358Z,4.78
2017-12-14T18:39:55.352Z,4.66
2017-12-14T18:41:48.295Z,4.66
2017-12-14T18:42:48.309Z,4.63
2017-12-14T18:44:41.829Z,4.60
2017-12-14T18:45:41.771Z,4.55
2017-12-14T18:47:34.738Z,4.51
2017-12-14T18:48:34.724Z,4.55
2017-12-14T18:50:28.196Z,4.72
2017-12-14T18:51:28.191Z,4.59
2017-12-14T18:53:21.137Z,4.70
2017-12-14T18:54:21.151Z,4.78
2017-12-14T18:56:14.104Z,4.75
2017-12-14T18:57:14.125Z,4.84
2017-12-14T18:59:07.063Z,4.84
2017-12-14T19:00:07.080Z,4.94
2017-12-14T19:01:59.997Z,5.02
2017-12-14T19:03:00.008Z,5.02
2017-12-14T19:04:53.481Z,5.10
2017-12-14T19:05:53.479Z,5.06
2017-12-14T19:07:46.926Z,5.04
2017-12-14T19:08:46.944Z,5.12
2017-12-14T19:10:39.900Z,5.04
2017-12-14T19:11:39.898Z,5.13
2017-12-14T19:13:33.347Z,5.20